Morristown Municipal Airport Morristown US
ICAO: KMMU
IATA: MMU
Category: Medium
Scheduled Services: No

Elevation: 187 ft
TransAlt. 18000 ft.

Airport Communications:
NEW YORK APP:127.6
ATIS:124.25
CLNC DEL:121.2
CTAF:118.1
NEW YORK DEP:119.2
GND:121.7
TWR:118.1

KMMU Zoom In..

Runways:

(A) RW 05 length 5998 ft width 150 ft
---- / hdg 49

(B) RW 13 length 3997 ft width 150 ft
---- / hdg 127

(C) RW 23 length 5998 ft width 150 ft
ILS 110.30 / hdg 229

(D) RW 31 length 3997 ft width 150 ft
---- / hdg 307

Location; KMMU
Day. 26 / Time. 13.45 Zulu
* Altimeter: 29.84
* Temperature: 28° c. 82.4°f.
* Wind from: 240° Speed 07 kn.
Dewpoint: 20° c.
Visibility: 10 Statute Miles.
Clouds: Few 8000 ft.
Clouds: Scattered 14000 ft.

KMMU 261345Z 24007KT 10SM FEW080 SCT140 28/20 A2984


Wind From 240°
Speed 07 kn.

 
 
jpsmedia.com for Web Design SOUNDCLOUD worldairports.se 2018   terms of use